sensor_id;sensor_type;location;lat;lon;timestamp;P1;durP1;ratioP1;P2;durP2;ratioP2
70981;SDS011;58640;51.320;9.456;2023-03-24T00:01:01;6.07;;;3.05;;
70981;SDS011;58640;51.320;9.456;2023-03-24T00:03:28;4.15;;;2.90;;
70981;SDS011;58640;51.320;9.456;2023-03-24T00:06:01;6.20;;;2.88;;
70981;SDS011;58640;51.320;9.456;2023-03-24T00:08:29;3.55;;;3.10;;
70981;SDS011;58640;51.320;9.456;2023-03-24T00:11:00;5.85;;;3.90;;
70981;SDS011;58640;51.320;9.456;2023-03-24T00:13:28;3.60;;;3.15;;
70981;SDS011;58640;51.320;9.456;2023-03-24T00:15:56;5.63;;;3.47;;
70981;SDS011;58640;51.320;9.456;2023-03-24T00:18:21;3.50;;;3.03;;
70981;SDS011;58640;51.320;9.456;2023-03-24T00:20:50;4.72;;;3.47;;
70981;SDS011;58640;51.320;9.456;2023-03-24T00:23:22;3.55;;;2.97;;
70981;SDS011;58640;51.320;9.456;2023-03-24T00:25:57;5.65;;;3.80;;
70981;SDS011;58640;51.320;9.456;2023-03-24T00:28:23;5.25;;;3.40;;
70981;SDS011;58640;51.320;9.456;2023-03-24T00:30:50;10.00;;;3.90;;
70981;SDS011;58640;51.320;9.456;2023-03-24T00:33:16;6.68;;;3.80;;
70981;SDS011;58640;51.320;9.456;2023-03-24T00:35:41;4.60;;;3.70;;
70981;SDS011;58640;51.320;9.456;2023-03-24T00:38:08;5.65;;;4.05;;
70981;SDS011;58640;51.320;9.456;2023-03-24T00:40:34;4.60;;;3.72;;
70981;SDS011;58640;51.320;9.456;2023-03-24T00:42:59;6.05;;;4.10;;
70981;SDS011;58640;51.320;9.456;2023-03-24T00:45:25;5.88;;;3.90;;
70981;SDS011;58640;51.320;9.456;2023-03-24T00:47:53;3.97;;;3.58;;
70981;SDS011;58640;51.320;9.456;2023-03-24T00:50:21;6.75;;;4.15;;
70981;SDS011;58640;51.320;9.456;2023-03-24T00:52:50;5.07;;;4.32;;
70981;SDS011;58640;51.320;9.456;2023-03-24T00:55:17;5.82;;;4.18;;
70981;SDS011;58640;51.320;9.456;2023-03-24T00:57:43;5.07;;;3.83;;
70981;SDS011;58640;51.320;9.456;2023-03-24T01:00:23;5.90;;;4.00;;
70981;SDS011;58640;51.320;9.456;2023-03-24T01:02:50;6.63;;;4.30;;
70981;SDS011;58640;51.320;9.456;2023-03-24T01:05:17;4.90;;;4.13;;
70981;SDS011;58640;51.320;9.456;2023-03-24T01:07:44;9.75;;;5.25;;
70981;SDS011;58640;51.320;9.456;2023-03-24T01:10:11;8.88;;;5.72;;
70981;SDS011;58640;51.320;9.456;2023-03-24T01:12:37;6.53;;;4.43;;
70981;SDS011;58640;51.320;9.456;2023-03-24T01:15:08;5.43;;;3.80;;
70981;SDS011;58640;51.320;9.456;2023-03-24T01:17:37;4.65;;;4.13;;
70981;SDS011;58640;51.320;9.456;2023-03-24T01:20:02;8.15;;;3.92;;
70981;SDS011;58640;51.320;9.456;2023-03-24T01:22:32;5.72;;;4.20;;
70981;SDS011;58640;51.320;9.456;2023-03-24T01:25:01;5.55;;;3.92;;
70981;SDS011;58640;51.320;9.456;2023-03-24T01:27:36;4.50;;;4.00;;
70981;SDS011;58640;51.320;9.456;2023-03-24T01:30:02;8.55;;;4.35;;
70981;SDS011;58640;51.320;9.456;2023-03-24T01:32:29;5.57;;;4.10;;
70981;SDS011;58640;51.320;9.456;2023-03-24T01:34:55;5.97;;;4.00;;
70981;SDS011;58640;51.320;9.456;2023-03-24T01:37:20;4.65;;;3.95;;
70981;SDS011;58640;51.320;9.456;2023-03-24T01:39:47;7.72;;;3.63;;
70981;SDS011;58640;51.320;9.456;2023-03-24T01:42:18;6.75;;;4.15;;
70981;SDS011;58640;51.320;9.456;2023-03-24T01:44:46;4.47;;;3.95;;
70981;SDS011;58640;51.320;9.456;2023-03-24T01:47:13;5.20;;;4.38;;
70981;SDS011;58640;51.320;9.456;2023-03-24T01:49:44;7.15;;;3.88;;
70981;SDS011;58640;51.320;9.456;2023-03-24T01:52:16;6.28;;;3.65;;
70981;SDS011;58640;51.320;9.456;2023-03-24T01:54:46;6.63;;;4.80;;
70981;SDS011;58640;51.320;9.456;2023-03-24T01:57:23;4.18;;;3.70;;
70981;SDS011;58640;51.320;9.456;2023-03-24T02:00:09;5.35;;;3.70;;
70981;SDS011;58640;51.320;9.456;2023-03-24T02:02:37;6.68;;;4.45;;
70981;SDS011;58640;51.320;9.456;2023-03-24T02:05:06;7.72;;;3.83;;
70981;SDS011;58640;51.320;9.456;2023-03-24T02:10:35;5.15;;;3.40;;
70981;SDS011;58640;51.320;9.456;2023-03-24T02:13:02;4.80;;;3.85;;
70981;SDS011;58640;51.320;9.456;2023-03-24T02:15:28;4.68;;;4.07;;
70981;SDS011;58640;51.320;9.456;2023-03-24T02:29:01;5.95;;;3.85;;
70981;SDS011;58640;51.320;9.456;2023-03-24T02:40:06;5.65;;;4.07;;
70981;SDS011;58640;51.320;9.456;2023-03-24T02:42:51;5.28;;;4.15;;
70981;SDS011;58640;51.320;9.456;2023-03-24T02:45:35;7.45;;;3.78;;
70981;SDS011;58640;51.320;9.456;2023-03-24T02:51:00;5.47;;;3.47;;
70981;SDS011;58640;51.320;9.456;2023-03-24T02:56:35;4.35;;;3.60;;
70981;SDS011;58640;51.320;9.456;2023-03-24T02:59:10;6.65;;;4.05;;
70981;SDS011;58640;51.320;9.456;2023-03-24T03:01:46;3.75;;;3.28;;
70981;SDS011;58640;51.320;9.456;2023-03-24T03:04:23;7.25;;;4.47;;
70981;SDS011;58640;51.320;9.456;2023-03-24T03:06:54;6.38;;;3.75;;
70981;SDS011;58640;51.320;9.456;2023-03-24T03:09:23;7.88;;;4.10;;
70981;SDS011;58640;51.320;9.456;2023-03-24T03:11:51;6.45;;;4.50;;
70981;SDS011;58640;51.320;9.456;2023-03-24T03:14:25;6.07;;;4.32;;
70981;SDS011;58640;51.320;9.456;2023-03-24T03:16:59;4.93;;;4.22;;
70981;SDS011;58640;51.320;9.456;2023-03-24T03:22:02;7.43;;;4.25;;
70981;SDS011;58640;51.320;9.456;2023-03-24T03:24:32;6.18;;;4.40;;
70981;SDS011;58640;51.320;9.456;2023-03-24T03:27:07;6.50;;;5.00;;
70981;SDS011;58640;51.320;9.456;2023-03-24T03:29:39;7.80;;;4.72;;
70981;SDS011;58640;51.320;9.456;2023-03-24T03:32:10;8.40;;;4.75;;
70981;SDS011;58640;51.320;9.456;2023-03-24T03:34:51;8.57;;;5.05;;
70981;SDS011;58640;51.320;9.456;2023-03-24T03:37:27;6.10;;;4.47;;
70981;SDS011;58640;51.320;9.456;2023-03-24T03:40:18;5.90;;;4.85;;
70981;SDS011;58640;51.320;9.456;2023-03-24T03:42:46;8.75;;;4.63;;
70981;SDS011;58640;51.320;9.456;2023-03-24T03:45:12;6.15;;;4.50;;
70981;SDS011;58640;51.320;9.456;2023-03-24T03:47:38;5.45;;;4.50;;
70981;SDS011;58640;51.320;9.456;2023-03-24T03:50:05;6.75;;;4.63;;
70981;SDS011;58640;51.320;9.456;2023-03-24T03:52:32;8.40;;;4.53;;
70981;SDS011;58640;51.320;9.456;2023-03-24T03:54:59;7.18;;;4.55;;
70981;SDS011;58640;51.320;9.456;2023-03-24T03:57:24;7.72;;;4.82;;
70981;SDS011;58640;51.320;9.456;2023-03-24T03:59:51;7.95;;;4.97;;
70981;SDS011;58640;51.320;9.456;2023-03-24T04:08:13;6.45;;;4.38;;
70981;SDS011;58640;51.320;9.456;2023-03-24T04:21:45;7.60;;;4.00;;
70981;SDS011;58640;51.320;9.456;2023-03-24T04:24:28;5.72;;;4.43;;
70981;SDS011;58640;51.320;9.456;2023-03-24T04:29:37;4.60;;;3.70;;
70981;SDS011;58640;51.320;9.456;2023-03-24T04:34:49;5.47;;;3.70;;
70981;SDS011;58640;51.320;9.456;2023-03-24T04:37:25;6.00;;;4.10;;
70981;SDS011;58640;51.320;9.456;2023-03-24T04:40:02;8.90;;;4.18;;
70981;SDS011;58640;51.320;9.456;2023-03-24T04:42:36;7.50;;;3.60;;
70981;SDS011;58640;51.320;9.456;2023-03-24T04:45:06;5.72;;;3.95;;
70981;SDS011;58640;51.320;9.456;2023-03-24T04:47:35;8.38;;;4.00;;
70981;SDS011;58640;51.320;9.456;2023-03-24T04:50:08;6.28;;;3.88;;
70981;SDS011;58640;51.320;9.456;2023-03-24T04:52:35;5.00;;;4.10;;
70981;SDS011;58640;51.320;9.456;2023-03-24T04:55:13;6.38;;;3.85;;
70981;SDS011;58640;51.320;9.456;2023-03-24T04:57:52;8.95;;;4.07;;
70981;SDS011;58640;51.320;9.456;2023-03-24T05:00:18;5.43;;;3.65;;
70981;SDS011;58640;51.320;9.456;2023-03-24T05:02:43;11.15;;;4.18;;
70981;SDS011;58640;51.320;9.456;2023-03-24T05:05:09;7.05;;;3.53;;
70981;SDS011;58640;51.320;9.456;2023-03-24T05:07:35;7.65;;;4.20;;
70981;SDS011;58640;51.320;9.456;2023-03-24T05:10:00;7.75;;;3.42;;
70981;SDS011;58640;51.320;9.456;2023-03-24T05:12:26;7.57;;;3.60;;
70981;SDS011;58640;51.320;9.456;2023-03-24T05:14:51;5.18;;;3.70;;
70981;SDS011;58640;51.320;9.456;2023-03-24T05:17:16;6.38;;;3.45;;
70981;SDS011;58640;51.320;9.456;2023-03-24T05:19:42;4.50;;;3.58;;
70981;SDS011;58640;51.320;9.456;2023-03-24T05:22:07;4.63;;;4.15;;
70981;SDS011;58640;51.320;9.456;2023-03-24T05:24:32;4.63;;;3.53;;
70981;SDS011;58640;51.320;9.456;2023-03-24T05:26:58;6.30;;;3.65;;
70981;SDS011;58640;51.320;9.456;2023-03-24T05:29:24;6.13;;;3.95;;
70981;SDS011;58640;51.320;9.456;2023-03-24T05:31:50;6.03;;;3.60;;
70981;SDS011;58640;51.320;9.456;2023-03-24T05:34:15;7.60;;;4.53;;
70981;SDS011;58640;51.320;9.456;2023-03-24T05:36:40;5.28;;;4.70;;
70981;SDS011;58640;51.320;9.456;2023-03-24T05:39:06;4.38;;;3.72;;
70981;SDS011;58640;51.320;9.456;2023-03-24T05:41:31;5.30;;;3.67;;
70981;SDS011;58640;51.320;9.456;2023-03-24T05:43:57;6.35;;;3.97;;
70981;SDS011;58640;51.320;9.456;2023-03-24T05:46:22;6.35;;;4.05;;
70981;SDS011;58640;51.320;9.456;2023-03-24T05:48:47;6.75;;;4.78;;
70981;SDS011;58640;51.320;9.456;2023-03-24T05:51:13;7.53;;;3.90;;
70981;SDS011;58640;51.320;9.456;2023-03-24T05:53:38;7.25;;;4.15;;
70981;SDS011;58640;51.320;9.456;2023-03-24T05:56:03;7.13;;;4.95;;
70981;SDS011;58640;51.320;9.456;2023-03-24T05:58:29;6.47;;;4.80;;
70981;SDS011;58640;51.320;9.456;2023-03-24T06:00:58;7.93;;;4.57;;
70981;SDS011;58640;51.320;9.456;2023-03-24T06:03:23;6.13;;;4.43;;
70981;SDS011;58640;51.320;9.456;2023-03-24T06:05:49;6.00;;;4.80;;
70981;SDS011;58640;51.320;9.456;2023-03-24T06:08:14;7.53;;;5.30;;
70981;SDS011;58640;51.320;9.456;2023-03-24T06:10:41;6.13;;;4.50;;
70981;SDS011;58640;51.320;9.456;2023-03-24T06:13:06;6.97;;;5.22;;
70981;SDS011;58640;51.320;9.456;2023-03-24T06:15:33;6.45;;;5.28;;
70981;SDS011;58640;51.320;9.456;2023-03-24T06:17:58;9.55;;;5.80;;
70981;SDS011;58640;51.320;9.456;2023-03-24T06:20:24;6.82;;;4.85;;
70981;SDS011;58640;51.320;9.456;2023-03-24T06:22:51;10.00;;;6.65;;
70981;SDS011;58640;51.320;9.456;2023-03-24T06:25:18;8.98;;;5.22;;
70981;SDS011;58640;51.320;9.456;2023-03-24T06:27:46;6.50;;;5.32;;
70981;SDS011;58640;51.320;9.456;2023-03-24T06:30:12;10.23;;;5.00;;
70981;SDS011;58640;51.320;9.456;2023-03-24T06:32:40;15.20;;;7.70;;
70981;SDS011;58640;51.320;9.456;2023-03-24T06:35:07;9.10;;;5.45;;
70981;SDS011;58640;51.320;9.456;2023-03-24T06:37:32;8.43;;;5.47;;
70981;SDS011;58640;51.320;9.456;2023-03-24T06:39:58;10.45;;;5.22;;
70981;SDS011;58640;51.320;9.456;2023-03-24T06:42:24;7.47;;;5.28;;
70981;SDS011;58640;51.320;9.456;2023-03-24T06:44:51;10.30;;;5.57;;
70981;SDS011;58640;51.320;9.456;2023-03-24T06:47:16;9.73;;;5.10;;
70981;SDS011;58640;51.320;9.456;2023-03-24T06:49:41;7.20;;;5.07;;
70981;SDS011;58640;51.320;9.456;2023-03-24T06:52:07;8.35;;;4.78;;
70981;SDS011;58640;51.320;9.456;2023-03-24T06:54:32;8.40;;;5.53;;
70981;SDS011;58640;51.320;9.456;2023-03-24T06:56:58;11.32;;;4.75;;
70981;SDS011;58640;51.320;9.456;2023-03-24T06:59:23;6.72;;;4.68;;
70981;SDS011;58640;51.320;9.456;2023-03-24T07:01:51;5.63;;;4.85;;
70981;SDS011;58640;51.320;9.456;2023-03-24T07:04:17;9.18;;;5.13;;
70981;SDS011;58640;51.320;9.456;2023-03-24T07:06:42;5.35;;;4.75;;
70981;SDS011;58640;51.320;9.456;2023-03-24T07:09:09;7.22;;;4.65;;
70981;SDS011;58640;51.320;9.456;2023-03-24T07:11:36;7.18;;;5.45;;
70981;SDS011;58640;51.320;9.456;2023-03-24T07:14:01;9.27;;;5.70;;
70981;SDS011;58640;51.320;9.456;2023-03-24T07:16:27;9.30;;;5.57;;
70981;SDS011;58640;51.320;9.456;2023-03-24T07:18:52;7.38;;;5.03;;
70981;SDS011;58640;51.320;9.456;2023-03-24T07:21:17;16.38;;;7.80;;
70981;SDS011;58640;51.320;9.456;2023-03-24T07:23:43;23.83;;;14.55;;
70981;SDS011;58640;51.320;9.456;2023-03-24T07:26:09;6.88;;;4.90;;
70981;SDS011;58640;51.320;9.456;2023-03-24T07:28:35;28.90;;;16.85;;
70981;SDS011;58640;51.320;9.456;2023-03-24T07:31:01;20.77;;;12.60;;
70981;SDS011;58640;51.320;9.456;2023-03-24T07:33:27;6.05;;;5.00;;
70981;SDS011;58640;51.320;9.456;2023-03-24T07:35:53;7.80;;;4.53;;
70981;SDS011;58640;51.320;9.456;2023-03-24T07:38:20;6.25;;;4.00;;
70981;SDS011;58640;51.320;9.456;2023-03-24T07:40:45;5.13;;;3.70;;
70981;SDS011;58640;51.320;9.456;2023-03-24T07:43:11;4.57;;;3.50;;
70981;SDS011;58640;51.320;9.456;2023-03-24T07:45:36;3.97;;;3.13;;
70981;SDS011;58640;51.320;9.456;2023-03-24T07:48:01;2.17;;;1.98;;
70981;SDS011;58640;51.320;9.456;2023-03-24T07:50:28;3.15;;;2.13;;
70981;SDS011;58640;51.320;9.456;2023-03-24T07:52:54;3.17;;;2.72;;
70981;SDS011;58640;51.320;9.456;2023-03-24T07:55:19;1.88;;;1.58;;
70981;SDS011;58640;51.320;9.456;2023-03-24T07:57:45;2.13;;;1.60;;
70981;SDS011;58640;51.320;9.456;2023-03-24T08:00:12;1.95;;;1.10;;
70981;SDS011;58640;51.320;9.456;2023-03-24T08:02:44;1.40;;;1.15;;
70981;SDS011;58640;51.320;9.456;2023-03-24T08:05:11;1.05;;;1.00;;
70981;SDS011;58640;51.320;9.456;2023-03-24T08:07:42;1.35;;;1.00;;
70981;SDS011;58640;51.320;9.456;2023-03-24T08:10:09;1.38;;;1.23;;
70981;SDS011;58640;51.320;9.456;2023-03-24T08:12:39;2.38;;;1.25;;
70981;SDS011;58640;51.320;9.456;2023-03-24T08:15:05;1.80;;;0.95;;
70981;SDS011;58640;51.320;9.456;2023-03-24T08:17:32;5.88;;;2.30;;
70981;SDS011;58640;51.320;9.456;2023-03-24T08:19:58;1.67;;;1.58;;
70981;SDS011;58640;51.320;9.456;2023-03-24T08:22:24;1.75;;;1.15;;
70981;SDS011;58640;51.320;9.456;2023-03-24T08:24:49;2.00;;;1.20;;
70981;SDS011;58640;51.320;9.456;2023-03-24T08:27:14;1.20;;;0.88;;
70981;SDS011;58640;51.320;9.456;2023-03-24T08:29:41;2.33;;;1.35;;
70981;SDS011;58640;51.320;9.456;2023-03-24T08:32:07;1.05;;;0.95;;
70981;SDS011;58640;51.320;9.456;2023-03-24T08:34:32;1.73;;;1.10;;
70981;SDS011;58640;51.320;9.456;2023-03-24T08:36:57;1.65;;;0.75;;
70981;SDS011;58640;51.320;9.456;2023-03-24T08:39:23;0.90;;;0.68;;
70981;SDS011;58640;51.320;9.456;2023-03-24T08:41:48;4.05;;;1.40;;
70981;SDS011;58640;51.320;9.456;2023-03-24T08:44:14;2.60;;;0.75;;
70981;SDS011;58640;51.320;9.456;2023-03-24T08:46:40;0.65;;;0.65;;
70981;SDS011;58640;51.320;9.456;2023-03-24T08:49:06;1.15;;;0.60;;
70981;SDS011;58640;51.320;9.456;2023-03-24T08:51:31;1.73;;;1.05;;
70981;SDS011;58640;51.320;9.456;2023-03-24T08:53:57;0.75;;;0.70;;
70981;SDS011;58640;51.320;9.456;2023-03-24T08:56:22;2.42;;;0.82;;
70981;SDS011;58640;51.320;9.456;2023-03-24T08:58:49;0.80;;;0.77;;
70981;SDS011;58640;51.320;9.456;2023-03-24T09:01:17;1.05;;;0.93;;
70981;SDS011;58640;51.320;9.456;2023-03-24T09:03:44;1.85;;;0.90;;
70981;SDS011;58640;51.320;9.456;2023-03-24T09:06:10;1.20;;;1.08;;
70981;SDS011;58640;51.320;9.456;2023-03-24T09:08:36;6.90;;;3.45;;
70981;SDS011;58640;51.320;9.456;2023-03-24T09:11:01;2.00;;;1.30;;
70981;SDS011;58640;51.320;9.456;2023-03-24T09:13:27;0.90;;;0.80;;
70981;SDS011;58640;51.320;9.456;2023-03-24T09:15:53;2.20;;;0.90;;
70981;SDS011;58640;51.320;9.456;2023-03-24T09:18:22;1.98;;;0.90;;
70981;SDS011;58640;51.320;9.456;2023-03-24T09:20:48;0.93;;;0.80;;
70981;SDS011;58640;51.320;9.456;2023-03-24T09:23:14;0.90;;;0.77;;
70981;SDS011;58640;51.320;9.456;2023-03-24T09:25:39;0.70;;;0.70;;
70981;SDS011;58640;51.320;9.456;2023-03-24T09:28:05;2.65;;;1.10;;
70981;SDS011;58640;51.320;9.456;2023-03-24T09:30:32;1.27;;;0.70;;
70981;SDS011;58640;51.320;9.456;2023-03-24T09:32:57;1.63;;;0.90;;
70981;SDS011;58640;51.320;9.456;2023-03-24T09:35:23;3.08;;;0.98;;
70981;SDS011;58640;51.320;9.456;2023-03-24T09:37:51;3.90;;;0.75;;
70981;SDS011;58640;51.320;9.456;2023-03-24T09:40:27;2.45;;;0.80;;
70981;SDS011;58640;51.320;9.456;2023-03-24T09:42:57;6.78;;;1.08;;
70981;SDS011;58640;51.320;9.456;2023-03-24T09:45:25;1.45;;;0.80;;
70981;SDS011;58640;51.320;9.456;2023-03-24T09:50:28;2.38;;;0.93;;
70981;SDS011;58640;51.320;9.456;2023-03-24T09:53:01;1.52;;;0.70;;
70981;SDS011;58640;51.320;9.456;2023-03-24T09:55:33;2.53;;;0.90;;
70981;SDS011;58640;51.320;9.456;2023-03-24T09:58:03;0.75;;;0.50;;
70981;SDS011;58640;51.320;9.456;2023-03-24T10:00:32;5.22;;;2.78;;
70981;SDS011;58640;51.320;9.456;2023-03-24T10:02:59;3.63;;;1.13;;
70981;SDS011;58640;51.320;9.456;2023-03-24T10:05:50;1.88;;;0.88;;
70981;SDS011;58640;51.320;9.456;2023-03-24T10:08:36;1.30;;;0.68;;
70981;SDS011;58640;51.320;9.456;2023-03-24T10:11:26;3.05;;;0.90;;
70981;SDS011;58640;51.320;9.456;2023-03-24T10:30:16;2.45;;;1.42;;
70981;SDS011;58640;51.320;9.456;2023-03-24T10:32:44;2.45;;;1.25;;
70981;SDS011;58640;51.320;9.456;2023-03-24T10:35:20;3.05;;;1.38;;
70981;SDS011;58640;51.320;9.456;2023-03-24T10:37:50;1.63;;;1.20;;
70981;SDS011;58640;51.320;9.456;2023-03-24T10:40:17;2.95;;;1.42;;
70981;SDS011;58640;51.320;9.456;2023-03-24T10:42:44;2.33;;;1.27;;
70981;SDS011;58640;51.320;9.456;2023-03-24T10:45:13;2.78;;;1.08;;
70981;SDS011;58640;51.320;9.456;2023-03-24T10:47:41;3.72;;;1.92;;
70981;SDS011;58640;51.320;9.456;2023-03-24T10:50:07;1.95;;;1.40;;
70981;SDS011;58640;51.320;9.456;2023-03-24T10:52:37;5.07;;;1.63;;
70981;SDS011;58640;51.320;9.456;2023-03-24T10:55:06;2.90;;;1.42;;
70981;SDS011;58640;51.320;9.456;2023-03-24T10:57:38;6.53;;;2.10;;
70981;SDS011;58640;51.320;9.456;2023-03-24T11:00:08;2.58;;;1.40;;
70981;SDS011;58640;51.320;9.456;2023-03-24T11:02:48;2.72;;;1.52;;
70981;SDS011;58640;51.320;9.456;2023-03-24T11:05:20;2.88;;;0.88;;
70981;SDS011;58640;51.320;9.456;2023-03-24T11:07:48;1.30;;;1.20;;
70981;SDS011;58640;51.320;9.456;2023-03-24T11:10:18;2.13;;;1.40;;
70981;SDS011;58640;51.320;9.456;2023-03-24T11:15:21;4.13;;;1.27;;
70981;SDS011;58640;51.320;9.456;2023-03-24T11:17:57;3.20;;;1.58;;
70981;SDS011;58640;51.320;9.456;2023-03-24T11:20:35;6.18;;;1.50;;
70981;SDS011;58640;51.320;9.456;2023-03-24T11:23:24;2.15;;;1.25;;
70981;SDS011;58640;51.320;9.456;2023-03-24T11:28:46;3.35;;;1.27;;
70981;SDS011;58640;51.320;9.456;2023-03-24T11:31:23;2.58;;;1.50;;
70981;SDS011;58640;51.320;9.456;2023-03-24T11:33:55;3.22;;;1.83;;
70981;SDS011;58640;51.320;9.456;2023-03-24T11:38:59;4.28;;;1.35;;
70981;SDS011;58640;51.320;9.456;2023-03-24T11:41:35;1.85;;;1.55;;
70981;SDS011;58640;51.320;9.456;2023-03-24T11:44:16;3.03;;;1.13;;
70981;SDS011;58640;51.320;9.456;2023-03-24T11:46:43;3.20;;;1.40;;
70981;SDS011;58640;51.320;9.456;2023-03-24T11:49:12;5.25;;;1.65;;
70981;SDS011;58640;51.320;9.456;2023-03-24T11:51:42;3.58;;;1.65;;
70981;SDS011;58640;51.320;9.456;2023-03-24T11:54:13;3.33;;;1.40;;
70981;SDS011;58640;51.320;9.456;2023-03-24T11:56:43;4.70;;;2.10;;
70981;SDS011;58640;51.320;9.456;2023-03-24T12:10:09;8.05;;;2.00;;
70981;SDS011;58640;51.320;9.456;2023-03-24T12:12:57;3.08;;;1.40;;
70981;SDS011;58640;51.320;9.456;2023-03-24T12:20:44;3.33;;;1.67;;
70981;SDS011;58640;51.320;9.456;2023-03-24T12:34:31;2.55;;;1.20;;
70981;SDS011;58640;51.320;9.456;2023-03-24T12:37:22;4.78;;;1.40;;
70981;SDS011;58640;51.320;9.456;2023-03-24T12:39:59;4.75;;;1.23;;
70981;SDS011;58640;51.320;9.456;2023-03-24T12:42:39;4.95;;;1.50;;
70981;SDS011;58640;51.320;9.456;2023-03-24T12:56:39;6.22;;;1.38;;
70981;SDS011;58640;51.320;9.456;2023-03-24T12:59:12;9.23;;;1.60;;
70981;SDS011;58640;51.320;9.456;2023-03-24T13:01:42;2.75;;;1.20;;
70981;SDS011;58640;51.320;9.456;2023-03-24T13:04:14;6.40;;;1.50;;
70981;SDS011;58640;51.320;9.456;2023-03-24T13:09:21;3.50;;;1.45;;
70981;SDS011;58640;51.320;9.456;2023-03-24T13:12:19;6.88;;;1.80;;
70981;SDS011;58640;51.320;9.456;2023-03-24T13:20:04;3.25;;;1.40;;
70981;SDS011;58640;51.320;9.456;2023-03-24T13:22:36;3.70;;;1.88;;
70981;SDS011;58640;51.320;9.456;2023-03-24T13:25:02;7.22;;;1.80;;
70981;SDS011;58640;51.320;9.456;2023-03-24T13:27:34;9.50;;;3.08;;
70981;SDS011;58640;51.320;9.456;2023-03-24T13:32:39;4.63;;;1.85;;
70981;SDS011;58640;51.320;9.456;2023-03-24T13:35:18;8.10;;;2.67;;
70981;SDS011;58640;51.320;9.456;2023-03-24T13:38:53;2.90;;;1.40;;
70981;SDS011;58640;51.320;9.456;2023-03-24T13:40:50;4.90;;;1.63;;
70981;SDS011;58640;51.320;9.456;2023-03-24T13:43:18;7.22;;;1.45;;
70981;SDS011;58640;51.320;9.456;2023-03-24T13:45:51;5.45;;;1.30;;
70981;SDS011;58640;51.320;9.456;2023-03-24T13:53:44;4.60;;;1.10;;
70981;SDS011;58640;51.320;9.456;2023-03-24T13:56:31;3.58;;;1.30;;
70981;SDS011;58640;51.320;9.456;2023-03-24T13:59:07;5.10;;;1.52;;
70981;SDS011;58640;51.320;9.456;2023-03-24T14:02:09;2.58;;;1.15;;
70981;SDS011;58640;51.320;9.456;2023-03-24T14:07:29;3.03;;;0.80;;
70981;SDS011;58640;51.320;9.456;2023-03-24T14:10:00;5.53;;;1.52;;
70981;SDS011;58640;51.320;9.456;2023-03-24T14:12:51;5.55;;;1.70;;
70981;SDS011;58640;51.320;9.456;2023-03-24T14:15:20;7.15;;;1.27;;
70981;SDS011;58640;51.320;9.456;2023-03-24T14:17:54;4.13;;;1.20;;
70981;SDS011;58640;51.320;9.456;2023-03-24T14:20:38;5.72;;;1.20;;
70981;SDS011;58640;51.320;9.456;2023-03-24T14:23:12;5.00;;;1.40;;
70981;SDS011;58640;51.320;9.456;2023-03-24T14:25:54;3.00;;;1.38;;
70981;SDS011;58640;51.320;9.456;2023-03-24T14:28:25;6.00;;;1.65;;
70981;SDS011;58640;51.320;9.456;2023-03-24T14:30:59;5.07;;;1.23;;
70981;SDS011;58640;51.320;9.456;2023-03-24T14:33:27;2.72;;;1.00;;
70981;SDS011;58640;51.320;9.456;2023-03-24T14:35:57;5.45;;;1.23;;
70981;SDS011;58640;51.320;9.456;2023-03-24T14:38:33;8.40;;;1.60;;
70981;SDS011;58640;51.320;9.456;2023-03-24T14:41:11;5.00;;;1.40;;
70981;SDS011;58640;51.320;9.456;2023-03-24T14:46:31;7.45;;;2.30;;
70981;SDS011;58640;51.320;9.456;2023-03-24T14:49:04;3.63;;;1.05;;
70981;SDS011;58640;51.320;9.456;2023-03-24T14:54:33;3.08;;;0.90;;
70981;SDS011;58640;51.320;9.456;2023-03-24T14:57:02;3.58;;;1.20;;
70981;SDS011;58640;51.320;9.456;2023-03-24T14:59:33;6.57;;;1.05;;
70981;SDS011;58640;51.320;9.456;2023-03-24T15:03:09;5.68;;;2.08;;
70981;SDS011;58640;51.320;9.456;2023-03-24T15:07:38;2.90;;;0.60;;
70981;SDS011;58640;51.320;9.456;2023-03-24T15:10:03;2.13;;;0.90;;
70981;SDS011;58640;51.320;9.456;2023-03-24T15:12:30;5.35;;;0.90;;
70981;SDS011;58640;51.320;9.456;2023-03-24T15:14:55;4.35;;;0.88;;
70981;SDS011;58640;51.320;9.456;2023-03-24T15:17:21;4.00;;;0.60;;
70981;SDS011;58640;51.320;9.456;2023-03-24T15:19:49;2.72;;;0.85;;
70981;SDS011;58640;51.320;9.456;2023-03-24T15:22:16;5.32;;;1.40;;
70981;SDS011;58640;51.320;9.456;2023-03-24T15:24:45;5.30;;;1.15;;
70981;SDS011;58640;51.320;9.456;2023-03-24T15:29:41;4.40;;;1.20;;
70981;SDS011;58640;51.320;9.456;2023-03-24T15:32:15;7.50;;;1.25;;
70981;SDS011;58640;51.320;9.456;2023-03-24T15:34:53;8.93;;;2.05;;
70981;SDS011;58640;51.320;9.456;2023-03-24T15:37:29;6.80;;;1.80;;
70981;SDS011;58640;51.320;9.456;2023-03-24T15:40:00;4.82;;;1.30;;
70981;SDS011;58640;51.320;9.456;2023-03-24T15:42:26;4.65;;;1.10;;
70981;SDS011;58640;51.320;9.456;2023-03-24T15:44:52;5.68;;;1.30;;
70981;SDS011;58640;51.320;9.456;2023-03-24T15:47:19;5.00;;;1.00;;
70981;SDS011;58640;51.320;9.456;2023-03-24T15:54:52;4.07;;;1.13;;
70981;SDS011;58640;51.320;9.456;2023-03-24T15:57:20;5.10;;;1.17;;
70981;SDS011;58640;51.320;9.456;2023-03-24T16:04:56;7.15;;;1.38;;
70981;SDS011;58640;51.320;9.456;2023-03-24T16:07:27;12.15;;;1.85;;
70981;SDS011;58640;51.320;9.456;2023-03-24T16:10:00;5.60;;;1.17;;
70981;SDS011;58640;51.320;9.456;2023-03-24T16:12:33;5.38;;;1.13;;
70981;SDS011;58640;51.320;9.456;2023-03-24T16:15:00;5.90;;;1.27;;
70981;SDS011;58640;51.320;9.456;2023-03-24T16:17:29;5.20;;;1.58;;
70981;SDS011;58640;51.320;9.456;2023-03-24T16:19:54;6.75;;;1.30;;
70981;SDS011;58640;51.320;9.456;2023-03-24T16:22:20;3.30;;;1.13;;
70981;SDS011;58640;51.320;9.456;2023-03-24T16:24:45;4.15;;;1.23;;
70981;SDS011;58640;51.320;9.456;2023-03-24T16:27:11;6.55;;;1.15;;
70981;SDS011;58640;51.320;9.456;2023-03-24T16:29:36;6.32;;;1.10;;
70981;SDS011;58640;51.320;9.456;2023-03-24T16:32:02;4.90;;;1.02;;
70981;SDS011;58640;51.320;9.456;2023-03-24T16:34:28;8.30;;;1.55;;
70981;SDS011;58640;51.320;9.456;2023-03-24T16:36:54;3.20;;;0.77;;
70981;SDS011;58640;51.320;9.456;2023-03-24T16:39:21;8.10;;;2.08;;
70981;SDS011;58640;51.320;9.456;2023-03-24T16:41:48;2.42;;;0.93;;
70981;SDS011;58640;51.320;9.456;2023-03-24T16:44:14;3.17;;;0.98;;
70981;SDS011;58640;51.320;9.456;2023-03-24T16:46:41;4.63;;;1.17;;
70981;SDS011;58640;51.320;9.456;2023-03-24T16:49:09;11.38;;;1.70;;
70981;SDS011;58640;51.320;9.456;2023-03-24T16:51:37;5.05;;;0.95;;
70981;SDS011;58640;51.320;9.456;2023-03-24T16:54:03;5.20;;;1.55;;
70981;SDS011;58640;51.320;9.456;2023-03-24T16:56:28;3.38;;;1.30;;
70981;SDS011;58640;51.320;9.456;2023-03-24T16:58:54;7.90;;;3.20;;
70981;SDS011;58640;51.320;9.456;2023-03-24T17:01:26;5.40;;;1.52;;
70981;SDS011;58640;51.320;9.456;2023-03-24T17:03:54;4.05;;;0.75;;
70981;SDS011;58640;51.320;9.456;2023-03-24T17:06:22;3.63;;;0.98;;
70981;SDS011;58640;51.320;9.456;2023-03-24T17:08:48;6.40;;;1.50;;
70981;SDS011;58640;51.320;9.456;2023-03-24T17:11:15;5.82;;;1.10;;
70981;SDS011;58640;51.320;9.456;2023-03-24T17:13:44;3.55;;;0.95;;
70981;SDS011;58640;51.320;9.456;2023-03-24T17:16:09;7.63;;;1.27;;
70981;SDS011;58640;51.320;9.456;2023-03-24T17:18:35;5.65;;;0.88;;
70981;SDS011;58640;51.320;9.456;2023-03-24T17:21:04;2.30;;;0.70;;
70981;SDS011;58640;51.320;9.456;2023-03-24T17:23:50;3.47;;;1.30;;
70981;SDS011;58640;51.320;9.456;2023-03-24T17:26:18;4.60;;;0.60;;
70981;SDS011;58640;51.320;9.456;2023-03-24T17:28:45;7.30;;;1.02;;
70981;SDS011;58640;51.320;9.456;2023-03-24T17:31:10;1.40;;;0.63;;
70981;SDS011;58640;51.320;9.456;2023-03-24T17:33:36;3.65;;;0.80;;
70981;SDS011;58640;51.320;9.456;2023-03-24T17:36:02;9.85;;;1.02;;
70981;SDS011;58640;51.320;9.456;2023-03-24T17:38:28;4.20;;;1.05;;
70981;SDS011;58640;51.320;9.456;2023-03-24T17:41:03;4.45;;;0.90;;